sensor_id;sensor_type;location;lat;lon;timestamp;P1;durP1;ratioP1;P2;durP2;ratioP2
14474;SDS011;7323;50.848;4.334;2023-01-05T00:02:21;32.57;;;5.70;;
14474;SDS011;7323;50.848;4.334;2023-01-05T00:04:47;24.27;;;5.80;;
14474;SDS011;7323;50.848;4.334;2023-01-05T00:07:13;20.47;;;5.33;;
14474;SDS011;7323;50.848;4.334;2023-01-05T00:09:38;22.73;;;5.07;;
14474;SDS011;7323;50.848;4.334;2023-01-05T00:12:06;22.97;;;5.63;;
14474;SDS011;7323;50.848;4.334;2023-01-05T00:14:56;21.40;;;5.57;;
14474;SDS011;7323;50.848;4.334;2023-01-05T00:17:33;20.27;;;5.10;;
14474;SDS011;7323;50.848;4.334;2023-01-05T00:20:20;24.60;;;6.07;;
14474;SDS011;7323;50.848;4.334;2023-01-05T00:23:08;21.23;;;5.53;;
14474;SDS011;7323;50.848;4.334;2023-01-05T00:25:43;25.43;;;6.07;;
14474;SDS011;7323;50.848;4.334;2023-01-05T00:28:12;22.97;;;5.40;;
14474;SDS011;7323;50.848;4.334;2023-01-05T00:30:45;27.57;;;6.90;;
14474;SDS011;7323;50.848;4.334;2023-01-05T00:33:13;23.63;;;5.73;;
14474;SDS011;7323;50.848;4.334;2023-01-05T00:35:40;23.97;;;6.40;;
14474;SDS011;7323;50.848;4.334;2023-01-05T00:38:06;23.63;;;5.47;;
14474;SDS011;7323;50.848;4.334;2023-01-05T00:40:33;25.10;;;6.40;;
14474;SDS011;7323;50.848;4.334;2023-01-05T00:42:59;21.60;;;5.40;;
14474;SDS011;7323;50.848;4.334;2023-01-05T00:45:25;20.97;;;5.53;;
14474;SDS011;7323;50.848;4.334;2023-01-05T00:47:52;27.30;;;6.17;;
14474;SDS011;7323;50.848;4.334;2023-01-05T00:50:19;26.03;;;6.00;;
14474;SDS011;7323;50.848;4.334;2023-01-05T00:52:47;26.40;;;5.90;;
14474;SDS011;7323;50.848;4.334;2023-01-05T00:55:13;26.33;;;6.20;;
14474;SDS011;7323;50.848;4.334;2023-01-05T00:57:40;28.07;;;6.40;;
14474;SDS011;7323;50.848;4.334;2023-01-05T01:02:39;24.73;;;7.03;;
14474;SDS011;7323;50.848;4.334;2023-01-05T01:05:06;29.40;;;6.50;;
14474;SDS011;7323;50.848;4.334;2023-01-05T01:07:32;23.07;;;5.73;;
14474;SDS011;7323;50.848;4.334;2023-01-05T01:09:57;18.20;;;5.93;;
14474;SDS011;7323;50.848;4.334;2023-01-05T01:12:23;28.17;;;5.67;;
14474;SDS011;7323;50.848;4.334;2023-01-05T01:14:49;32.40;;;6.60;;
14474;SDS011;7323;50.848;4.334;2023-01-05T01:17:16;29.30;;;6.70;;
14474;SDS011;7323;50.848;4.334;2023-01-05T01:19:45;24.13;;;6.07;;
14474;SDS011;7323;50.848;4.334;2023-01-05T01:22:10;25.57;;;6.23;;
14474;SDS011;7323;50.848;4.334;2023-01-05T01:24:36;24.80;;;6.10;;
14474;SDS011;7323;50.848;4.334;2023-01-05T01:27:02;27.47;;;6.30;;
14474;SDS011;7323;50.848;4.334;2023-01-05T01:29:29;30.93;;;6.47;;
14474;SDS011;7323;50.848;4.334;2023-01-05T01:31:55;20.97;;;6.27;;
14474;SDS011;7323;50.848;4.334;2023-01-05T01:34:21;32.27;;;6.57;;
14474;SDS011;7323;50.848;4.334;2023-01-05T01:36:47;28.03;;;6.37;;
14474;SDS011;7323;50.848;4.334;2023-01-05T01:39:14;29.07;;;6.13;;
14474;SDS011;7323;50.848;4.334;2023-01-05T01:41:49;28.83;;;6.63;;
14474;SDS011;7323;50.848;4.334;2023-01-05T01:47:13;19.70;;;5.53;;
14474;SDS011;7323;50.848;4.334;2023-01-05T01:49:50;28.97;;;6.70;;
14474;SDS011;7323;50.848;4.334;2023-01-05T01:52:18;21.60;;;5.50;;
14474;SDS011;7323;50.848;4.334;2023-01-05T01:54:46;28.60;;;6.07;;
14474;SDS011;7323;50.848;4.334;2023-01-05T01:57:12;24.63;;;6.10;;
14474;SDS011;7323;50.848;4.334;2023-01-05T01:59:39;30.50;;;6.50;;
14474;SDS011;7323;50.848;4.334;2023-01-05T02:02:05;28.50;;;6.20;;
14474;SDS011;7323;50.848;4.334;2023-01-05T02:04:32;28.20;;;6.33;;
14474;SDS011;7323;50.848;4.334;2023-01-05T02:07:00;27.00;;;6.00;;
14474;SDS011;7323;50.848;4.334;2023-01-05T02:09:26;26.17;;;6.47;;
14474;SDS011;7323;50.848;4.334;2023-01-05T02:14:43;24.10;;;6.23;;
14474;SDS011;7323;50.848;4.334;2023-01-05T02:25:53;23.90;;;5.80;;
14474;SDS011;7323;50.848;4.334;2023-01-05T02:31:40;25.67;;;6.57;;
14474;SDS011;7323;50.848;4.334;2023-01-05T02:34:29;24.80;;;5.70;;
14474;SDS011;7323;50.848;4.334;2023-01-05T02:37:16;22.90;;;5.97;;
14474;SDS011;7323;50.848;4.334;2023-01-05T02:40:21;23.73;;;6.30;;
14474;SDS011;7323;50.848;4.334;2023-01-05T02:43:03;24.80;;;6.67;;
14474;SDS011;7323;50.848;4.334;2023-01-05T02:45:30;24.10;;;6.03;;
14474;SDS011;7323;50.848;4.334;2023-01-05T02:47:57;31.13;;;6.30;;
14474;SDS011;7323;50.848;4.334;2023-01-05T02:50:56;28.07;;;6.73;;
14474;SDS011;7323;50.848;4.334;2023-01-05T02:53:24;21.70;;;5.97;;
14474;SDS011;7323;50.848;4.334;2023-01-05T02:59:49;26.17;;;6.57;;
14474;SDS011;7323;50.848;4.334;2023-01-05T03:02:19;28.63;;;6.53;;
14474;SDS011;7323;50.848;4.334;2023-01-05T03:04:51;33.03;;;7.03;;
14474;SDS011;7323;50.848;4.334;2023-01-05T03:07:23;27.97;;;5.93;;
14474;SDS011;7323;50.848;4.334;2023-01-05T03:09:51;26.97;;;6.83;;
14474;SDS011;7323;50.848;4.334;2023-01-05T03:15:17;28.40;;;6.27;;
14474;SDS011;7323;50.848;4.334;2023-01-05T03:17:59;22.73;;;5.97;;
14474;SDS011;7323;50.848;4.334;2023-01-05T03:20:31;25.10;;;6.07;;
14474;SDS011;7323;50.848;4.334;2023-01-05T03:22:59;23.83;;;5.53;;
14474;SDS011;7323;50.848;4.334;2023-01-05T03:25:46;30.07;;;6.03;;
14474;SDS011;7323;50.848;4.334;2023-01-05T03:28:53;33.73;;;7.83;;
14474;SDS011;7323;50.848;4.334;2023-01-05T03:31:47;21.40;;;5.30;;
14474;SDS011;7323;50.848;4.334;2023-01-05T03:34:56;26.33;;;6.77;;
14474;SDS011;7323;50.848;4.334;2023-01-05T03:37:46;27.23;;;6.07;;
14474;SDS011;7323;50.848;4.334;2023-01-05T03:40:32;30.47;;;6.80;;
14474;SDS011;7323;50.848;4.334;2023-01-05T03:42:59;28.93;;;6.73;;
14474;SDS011;7323;50.848;4.334;2023-01-05T03:45:26;27.67;;;7.03;;
14474;SDS011;7323;50.848;4.334;2023-01-05T03:47:59;33.07;;;7.40;;
14474;SDS011;7323;50.848;4.334;2023-01-05T03:50:24;34.77;;;6.77;;
14474;SDS011;7323;50.848;4.334;2023-01-05T03:52:50;23.30;;;6.07;;
14474;SDS011;7323;50.848;4.334;2023-01-05T03:55:15;29.70;;;6.20;;
14474;SDS011;7323;50.848;4.334;2023-01-05T03:57:41;32.50;;;7.63;;
14474;SDS011;7323;50.848;4.334;2023-01-05T04:00:07;26.90;;;7.03;;
14474;SDS011;7323;50.848;4.334;2023-01-05T04:02:33;24.43;;;6.17;;
14474;SDS011;7323;50.848;4.334;2023-01-05T04:04:59;27.33;;;6.30;;
14474;SDS011;7323;50.848;4.334;2023-01-05T04:07:24;24.73;;;6.80;;
14474;SDS011;7323;50.848;4.334;2023-01-05T04:09:50;25.37;;;6.00;;
14474;SDS011;7323;50.848;4.334;2023-01-05T04:12:16;23.07;;;5.43;;
14474;SDS011;7323;50.848;4.334;2023-01-05T04:14:41;30.43;;;6.60;;
14474;SDS011;7323;50.848;4.334;2023-01-05T04:17:07;20.17;;;5.60;;
14474;SDS011;7323;50.848;4.334;2023-01-05T04:19:33;24.87;;;6.33;;
14474;SDS011;7323;50.848;4.334;2023-01-05T04:21:58;32.23;;;6.60;;
14474;SDS011;7323;50.848;4.334;2023-01-05T04:24:24;22.77;;;6.50;;
14474;SDS011;7323;50.848;4.334;2023-01-05T04:26:51;31.37;;;6.53;;
14474;SDS011;7323;50.848;4.334;2023-01-05T04:29:18;28.73;;;6.03;;
14474;SDS011;7323;50.848;4.334;2023-01-05T04:31:46;25.77;;;6.00;;
14474;SDS011;7323;50.848;4.334;2023-01-05T04:37:33;30.13;;;6.63;;
14474;SDS011;7323;50.848;4.334;2023-01-05T04:39:59;22.53;;;6.10;;
14474;SDS011;7323;50.848;4.334;2023-01-05T04:42:25;32.20;;;6.63;;
14474;SDS011;7323;50.848;4.334;2023-01-05T04:44:50;26.50;;;5.87;;
14474;SDS011;7323;50.848;4.334;2023-01-05T04:47:16;26.47;;;7.03;;
14474;SDS011;7323;50.848;4.334;2023-01-05T04:49:41;29.57;;;7.27;;
14474;SDS011;7323;50.848;4.334;2023-01-05T04:52:10;25.93;;;7.13;;
14474;SDS011;7323;50.848;4.334;2023-01-05T04:54:45;27.77;;;6.87;;
14474;SDS011;7323;50.848;4.334;2023-01-05T04:57:11;23.17;;;5.37;;
14474;SDS011;7323;50.848;4.334;2023-01-05T04:59:36;31.87;;;8.10;;
14474;SDS011;7323;50.848;4.334;2023-01-05T05:02:02;30.10;;;6.13;;
14474;SDS011;7323;50.848;4.334;2023-01-05T05:04:27;25.23;;;6.07;;
14474;SDS011;7323;50.848;4.334;2023-01-05T05:06:53;26.67;;;6.67;;
14474;SDS011;7323;50.848;4.334;2023-01-05T05:09:21;25.73;;;6.67;;
14474;SDS011;7323;50.848;4.334;2023-01-05T05:11:47;24.33;;;6.40;;
14474;SDS011;7323;50.848;4.334;2023-01-05T05:14:12;25.50;;;5.97;;
14474;SDS011;7323;50.848;4.334;2023-01-05T05:16:39;33.13;;;7.60;;
14474;SDS011;7323;50.848;4.334;2023-01-05T05:19:18;25.50;;;6.60;;
14474;SDS011;7323;50.848;4.334;2023-01-05T05:21:44;30.97;;;6.90;;
14474;SDS011;7323;50.848;4.334;2023-01-05T05:24:10;28.90;;;6.03;;
14474;SDS011;7323;50.848;4.334;2023-01-05T05:26:38;25.87;;;6.80;;
14474;SDS011;7323;50.848;4.334;2023-01-05T05:29:03;30.57;;;6.80;;
14474;SDS011;7323;50.848;4.334;2023-01-05T05:31:29;24.67;;;5.97;;
14474;SDS011;7323;50.848;4.334;2023-01-05T05:33:55;31.37;;;6.47;;
14474;SDS011;7323;50.848;4.334;2023-01-05T05:36:20;24.83;;;6.00;;
14474;SDS011;7323;50.848;4.334;2023-01-05T05:38:46;29.67;;;6.50;;
14474;SDS011;7323;50.848;4.334;2023-01-05T05:41:12;29.03;;;6.77;;
14474;SDS011;7323;50.848;4.334;2023-01-05T05:43:38;30.40;;;7.03;;
14474;SDS011;7323;50.848;4.334;2023-01-05T05:46:03;27.43;;;7.00;;
14474;SDS011;7323;50.848;4.334;2023-01-05T05:48:29;29.67;;;7.80;;
14474;SDS011;7323;50.848;4.334;2023-01-05T05:50:55;35.67;;;7.87;;
14474;SDS011;7323;50.848;4.334;2023-01-05T05:53:20;27.27;;;6.77;;
14474;SDS011;7323;50.848;4.334;2023-01-05T05:55:46;30.50;;;7.00;;
14474;SDS011;7323;50.848;4.334;2023-01-05T05:58:18;29.53;;;7.33;;
14474;SDS011;7323;50.848;4.334;2023-01-05T06:00:45;35.83;;;7.40;;
14474;SDS011;7323;50.848;4.334;2023-01-05T06:03:12;29.23;;;7.57;;
14474;SDS011;7323;50.848;4.334;2023-01-05T06:05:37;35.47;;;8.20;;
14474;SDS011;7323;50.848;4.334;2023-01-05T06:08:03;26.83;;;6.30;;
14474;SDS011;7323;50.848;4.334;2023-01-05T06:10:29;34.50;;;7.50;;
14474;SDS011;7323;50.848;4.334;2023-01-05T06:12:55;22.53;;;6.77;;
14474;SDS011;7323;50.848;4.334;2023-01-05T06:15:22;32.47;;;7.00;;
14474;SDS011;7323;50.848;4.334;2023-01-05T06:17:48;26.90;;;7.43;;
14474;SDS011;7323;50.848;4.334;2023-01-05T06:20:15;32.77;;;7.53;;
14474;SDS011;7323;50.848;4.334;2023-01-05T06:22:42;30.60;;;7.67;;
14474;SDS011;7323;50.848;4.334;2023-01-05T06:25:09;28.03;;;6.30;;
14474;SDS011;7323;50.848;4.334;2023-01-05T06:27:35;34.60;;;7.60;;
14474;SDS011;7323;50.848;4.334;2023-01-05T06:30:01;33.17;;;7.13;;
14474;SDS011;7323;50.848;4.334;2023-01-05T06:32:28;28.93;;;7.63;;
14474;SDS011;7323;50.848;4.334;2023-01-05T06:34:53;28.67;;;7.87;;
14474;SDS011;7323;50.848;4.334;2023-01-05T06:37:19;27.77;;;7.70;;
14474;SDS011;7323;50.848;4.334;2023-01-05T06:39:45;31.97;;;7.03;;
14474;SDS011;7323;50.848;4.334;2023-01-05T06:42:10;28.47;;;6.23;;
14474;SDS011;7323;50.848;4.334;2023-01-05T06:44:36;23.77;;;6.83;;
14474;SDS011;7323;50.848;4.334;2023-01-05T06:47:01;28.53;;;6.70;;
14474;SDS011;7323;50.848;4.334;2023-01-05T06:49:28;27.60;;;6.23;;
14474;SDS011;7323;50.848;4.334;2023-01-05T06:51:54;32.83;;;7.13;;
14474;SDS011;7323;50.848;4.334;2023-01-05T06:57:09;27.43;;;6.33;;
14474;SDS011;7323;50.848;4.334;2023-01-05T06:59:35;27.43;;;6.87;;
14474;SDS011;7323;50.848;4.334;2023-01-05T07:02:02;28.73;;;6.57;;
14474;SDS011;7323;50.848;4.334;2023-01-05T07:07:15;31.23;;;7.00;;
14474;SDS011;7323;50.848;4.334;2023-01-05T07:09:42;30.77;;;6.80;;
14474;SDS011;7323;50.848;4.334;2023-01-05T07:12:13;26.60;;;6.50;;
14474;SDS011;7323;50.848;4.334;2023-01-05T07:14:38;28.83;;;6.10;;
14474;SDS011;7323;50.848;4.334;2023-01-05T07:17:04;28.63;;;6.37;;
14474;SDS011;7323;50.848;4.334;2023-01-05T07:19:30;20.43;;;5.60;;
14474;SDS011;7323;50.848;4.334;2023-01-05T07:21:56;25.63;;;6.73;;
14474;SDS011;7323;50.848;4.334;2023-01-05T07:24:22;30.10;;;6.53;;
14474;SDS011;7323;50.848;4.334;2023-01-05T07:26:48;29.97;;;6.70;;
14474;SDS011;7323;50.848;4.334;2023-01-05T07:29:15;26.50;;;6.73;;
14474;SDS011;7323;50.848;4.334;2023-01-05T07:31:41;31.07;;;6.87;;
14474;SDS011;7323;50.848;4.334;2023-01-05T07:34:07;28.03;;;7.43;;
14474;SDS011;7323;50.848;4.334;2023-01-05T07:36:35;30.73;;;7.00;;
14474;SDS011;7323;50.848;4.334;2023-01-05T07:39:00;29.70;;;6.10;;
14474;SDS011;7323;50.848;4.334;2023-01-05T07:41:27;26.23;;;6.77;;
14474;SDS011;7323;50.848;4.334;2023-01-05T07:43:52;27.23;;;7.17;;
14474;SDS011;7323;50.848;4.334;2023-01-05T07:46:20;30.73;;;6.47;;
14474;SDS011;7323;50.848;4.334;2023-01-05T07:48:46;27.33;;;6.23;;
14474;SDS011;7323;50.848;4.334;2023-01-05T07:51:11;25.77;;;6.33;;
14474;SDS011;7323;50.848;4.334;2023-01-05T07:53:37;32.57;;;6.63;;
14474;SDS011;7323;50.848;4.334;2023-01-05T07:56:03;26.50;;;6.53;;
14474;SDS011;7323;50.848;4.334;2023-01-05T07:58:32;25.57;;;6.37;;
14474;SDS011;7323;50.848;4.334;2023-01-05T08:01:02;32.50;;;7.23;;
14474;SDS011;7323;50.848;4.334;2023-01-05T08:03:32;28.67;;;6.73;;
14474;SDS011;7323;50.848;4.334;2023-01-05T08:06:01;24.30;;;6.47;;
14474;SDS011;7323;50.848;4.334;2023-01-05T08:08:29;25.83;;;6.73;;
14474;SDS011;7323;50.848;4.334;2023-01-05T08:10:55;34.40;;;7.67;;
14474;SDS011;7323;50.848;4.334;2023-01-05T08:13:23;26.33;;;6.77;;
14474;SDS011;7323;50.848;4.334;2023-01-05T08:16:25;28.27;;;6.50;;
14474;SDS011;7323;50.848;4.334;2023-01-05T08:18:51;35.67;;;6.63;;
14474;SDS011;7323;50.848;4.334;2023-01-05T08:21:17;32.70;;;6.83;;
14474;SDS011;7323;50.848;4.334;2023-01-05T08:23:43;35.13;;;7.47;;
14474;SDS011;7323;50.848;4.334;2023-01-05T08:26:11;31.07;;;7.43;;
14474;SDS011;7323;50.848;4.334;2023-01-05T08:28:38;31.73;;;7.47;;
14474;SDS011;7323;50.848;4.334;2023-01-05T08:31:05;36.10;;;8.13;;
14474;SDS011;7323;50.848;4.334;2023-01-05T08:33:34;33.33;;;6.83;;
14474;SDS011;7323;50.848;4.334;2023-01-05T08:35:59;32.37;;;7.33;;
14474;SDS011;7323;50.848;4.334;2023-01-05T08:38:25;28.30;;;6.93;;
14474;SDS011;7323;50.848;4.334;2023-01-05T08:40:51;26.33;;;6.63;;
14474;SDS011;7323;50.848;4.334;2023-01-05T08:43:17;30.03;;;8.03;;
14474;SDS011;7323;50.848;4.334;2023-01-05T08:45:46;32.23;;;7.40;;
14474;SDS011;7323;50.848;4.334;2023-01-05T08:48:14;26.93;;;7.33;;
14474;SDS011;7323;50.848;4.334;2023-01-05T08:50:40;28.27;;;7.23;;
14474;SDS011;7323;50.848;4.334;2023-01-05T08:53:06;28.20;;;7.20;;
14474;SDS011;7323;50.848;4.334;2023-01-05T08:55:31;29.97;;;7.10;;
14474;SDS011;7323;50.848;4.334;2023-01-05T08:57:57;26.53;;;7.27;;
14474;SDS011;7323;50.848;4.334;2023-01-05T09:00:23;32.10;;;7.70;;
14474;SDS011;7323;50.848;4.334;2023-01-05T09:02:48;34.27;;;7.27;;
14474;SDS011;7323;50.848;4.334;2023-01-05T09:05:14;34.40;;;7.40;;
14474;SDS011;7323;50.848;4.334;2023-01-05T09:07:40;24.23;;;6.10;;
14474;SDS011;7323;50.848;4.334;2023-01-05T09:10:06;28.20;;;6.60;;
14474;SDS011;7323;50.848;4.334;2023-01-05T09:12:35;26.13;;;7.30;;
14474;SDS011;7323;50.848;4.334;2023-01-05T09:15:02;30.73;;;6.90;;
14474;SDS011;7323;50.848;4.334;2023-01-05T09:17:32;28.23;;;6.90;;
14474;SDS011;7323;50.848;4.334;2023-01-05T09:20:15;27.67;;;7.03;;
14474;SDS011;7323;50.848;4.334;2023-01-05T09:22:40;31.63;;;6.50;;
14474;SDS011;7323;50.848;4.334;2023-01-05T09:25:12;27.67;;;6.83;;
14474;SDS011;7323;50.848;4.334;2023-01-05T09:27:38;31.50;;;7.33;;
14474;SDS011;7323;50.848;4.334;2023-01-05T09:30:04;27.50;;;6.83;;
14474;SDS011;7323;50.848;4.334;2023-01-05T09:32:30;30.73;;;7.23;;
14474;SDS011;7323;50.848;4.334;2023-01-05T09:34:55;33.17;;;7.47;;
14474;SDS011;7323;50.848;4.334;2023-01-05T09:37:22;33.70;;;7.20;;
14474;SDS011;7323;50.848;4.334;2023-01-05T09:39:49;35.20;;;6.97;;
14474;SDS011;7323;50.848;4.334;2023-01-05T09:42:29;24.77;;;6.43;;
14474;SDS011;7323;50.848;4.334;2023-01-05T09:45:01;31.30;;;6.67;;
14474;SDS011;7323;50.848;4.334;2023-01-05T09:47:39;28.23;;;6.90;;
14474;SDS011;7323;50.848;4.334;2023-01-05T09:50:08;28.83;;;7.03;;
14474;SDS011;7323;50.848;4.334;2023-01-05T09:52:45;33.43;;;7.17;;
14474;SDS011;7323;50.848;4.334;2023-01-05T09:55:16;31.13;;;7.30;;
14474;SDS011;7323;50.848;4.334;2023-01-05T09:57:52;21.90;;;6.53;;
14474;SDS011;7323;50.848;4.334;2023-01-05T10:00:21;32.10;;;7.77;;
14474;SDS011;7323;50.848;4.334;2023-01-05T10:02:52;25.77;;;6.30;;
14474;SDS011;7323;50.848;4.334;2023-01-05T10:05:23;28.80;;;7.87;;
14474;SDS011;7323;50.848;4.334;2023-01-05T10:08:06;31.53;;;6.73;;
14474;SDS011;7323;50.848;4.334;2023-01-05T10:10:46;28.37;;;7.07;;
14474;SDS011;7323;50.848;4.334;2023-01-05T10:13:38;21.67;;;6.37;;
14474;SDS011;7323;50.848;4.334;2023-01-05T10:16:12;27.90;;;7.23;;
14474;SDS011;7323;50.848;4.334;2023-01-05T10:18:40;31.43;;;6.00;;
14474;SDS011;7323;50.848;4.334;2023-01-05T10:23:46;27.40;;;6.63;;
14474;SDS011;7323;50.848;4.334;2023-01-05T10:26:28;24.63;;;6.40;;
14474;SDS011;7323;50.848;4.334;2023-01-05T10:29:09;24.27;;;6.20;;
14474;SDS011;7323;50.848;4.334;2023-01-05T10:31:45;23.73;;;6.77;;
14474;SDS011;7323;50.848;4.334;2023-01-05T10:45:13;25.93;;;6.40;;
14474;SDS011;7323;50.848;4.334;2023-01-05T10:47:44;31.03;;;7.13;;
14474;SDS011;7323;50.848;4.334;2023-01-05T10:53:00;25.77;;;6.90;;
14474;SDS011;7323;50.848;4.334;2023-01-05T10:55:32;26.63;;;6.60;;
14474;SDS011;7323;50.848;4.334;2023-01-05T10:58:19;26.43;;;6.53;;
14474;SDS011;7323;50.848;4.334;2023-01-05T11:00:49;27.67;;;6.37;;
14474;SDS011;7323;50.848;4.334;2023-01-05T11:03:38;24.80;;;6.37;;
14474;SDS011;7323;50.848;4.334;2023-01-05T11:06:06;24.87;;;5.87;;
14474;SDS011;7323;50.848;4.334;2023-01-05T11:08:33;24.97;;;7.30;;
14474;SDS011;7323;50.848;4.334;2023-01-05T11:11:06;30.00;;;6.40;;
14474;SDS011;7323;50.848;4.334;2023-01-05T11:13:36;30.53;;;7.43;;
14474;SDS011;7323;50.848;4.334;2023-01-05T11:21:18;28.37;;;6.83;;
14474;SDS011;7323;50.848;4.334;2023-01-05T11:23:49;32.60;;;7.77;;
14474;SDS011;7323;50.848;4.334;2023-01-05T11:36:59;28.83;;;7.40;;
14474;SDS011;7323;50.848;4.334;2023-01-05T11:39:32;27.23;;;7.23;;
14474;SDS011;7323;50.848;4.334;2023-01-05T11:42:13;32.87;;;7.00;;
14474;SDS011;7323;50.848;4.334;2023-01-05T11:44:49;27.87;;;7.03;;
14474;SDS011;7323;50.848;4.334;2023-01-05T11:47:27;30.53;;;7.50;;
14474;SDS011;7323;50.848;4.334;2023-01-05T11:50:03;28.63;;;6.73;;
14474;SDS011;7323;50.848;4.334;2023-01-05T11:52:43;26.67;;;7.03;;
14474;SDS011;7323;50.848;4.334;2023-01-05T11:57:50;28.33;;;7.57;;
14474;SDS011;7323;50.848;4.334;2023-01-05T12:00:32;26.00;;;6.67;;
14474;SDS011;7323;50.848;4.334;2023-01-05T12:05:49;27.30;;;7.33;;
14474;SDS011;7323;50.848;4.334;2023-01-05T12:08:21;28.90;;;7.03;;
14474;SDS011;7323;50.848;4.334;2023-01-05T12:11:09;34.47;;;7.57;;
14474;SDS011;7323;50.848;4.334;2023-01-05T12:14:06;28.80;;;7.33;;
14474;SDS011;7323;50.848;4.334;2023-01-05T12:16:48;29.57;;;6.90;;
14474;SDS011;7323;50.848;4.334;2023-01-05T12:22:54;36.90;;;7.43;;
14474;SDS011;7323;50.848;4.334;2023-01-05T12:28:36;36.93;;;8.43;;
14474;SDS011;7323;50.848;4.334;2023-01-05T12:33:56;31.17;;;7.40;;
14474;SDS011;7323;50.848;4.334;2023-01-05T12:51:25;38.93;;;8.60;;
14474;SDS011;7323;50.848;4.334;2023-01-05T12:56:29;33.27;;;7.33;;
14474;SDS011;7323;50.848;4.334;2023-01-05T13:07:05;26.57;;;7.23;;
14474;SDS011;7323;50.848;4.334;2023-01-05T13:09:39;31.40;;;7.70;;
14474;SDS011;7323;50.848;4.334;2023-01-05T13:12:08;34.33;;;8.63;;
14474;SDS011;7323;50.848;4.334;2023-01-05T13:14:39;35.80;;;8.33;;
14474;SDS011;7323;50.848;4.334;2023-01-05T13:17:24;30.67;;;7.73;;
14474;SDS011;7323;50.848;4.334;2023-01-05T13:20:04;31.50;;;8.47;;
14474;SDS011;7323;50.848;4.334;2023-01-05T13:22:42;24.50;;;6.93;;
14474;SDS011;7323;50.848;4.334;2023-01-05T13:25:19;22.03;;;7.27;;
14474;SDS011;7323;50.848;4.334;2023-01-05T13:27:48;26.20;;;7.43;;
14474;SDS011;7323;50.848;4.334;2023-01-05T13:30:32;16.97;;;6.13;;
14474;SDS011;7323;50.848;4.334;2023-01-05T13:42:05;22.87;;;6.60;;
14474;SDS011;7323;50.848;4.334;2023-01-05T13:44:51;14.63;;;6.07;;
14474;SDS011;7323;50.848;4.334;2023-01-05T13:53:39;17.53;;;5.73;;
14474;SDS011;7323;50.848;4.334;2023-01-05T13:56:24;16.90;;;5.70;;
14474;SDS011;7323;50.848;4.334;2023-01-05T13:58:59;15.60;;;5.20;;
14474;SDS011;7323;50.848;4.334;2023-01-05T14:01:35;13.17;;;5.33;;
14474;SDS011;7323;50.848;4.334;2023-01-05T14:04:01;14.17;;;4.70;;
14474;SDS011;7323;50.848;4.334;2023-01-05T14:06:30;16.00;;;5.20;;
14474;SDS011;7323;50.848;4.334;2023-01-05T14:09:14;16.30;;;5.43;;
14474;SDS011;7323;50.848;4.334;2023-01-05T14:25:56;10.80;;;4.97;;
14474;SDS011;7323;50.848;4.334;2023-01-05T14:33:57;15.03;;;5.40;;
14474;SDS011;7323;50.848;4.334;2023-01-05T14:36:42;13.83;;;4.77;;
14474;SDS011;7323;50.848;4.334;2023-01-05T14:39:23;12.37;;;5.10;;
14474;SDS011;7323;50.848;4.334;2023-01-05T14:41:59;12.13;;;5.07;;
14474;SDS011;7323;50.848;4.334;2023-01-05T14:47:06;11.07;;;5.23;;
14474;SDS011;7323;50.848;4.334;2023-01-05T14:49:37;8.73;;;4.50;;
14474;SDS011;7323;50.848;4.334;2023-01-05T14:52:10;13.40;;;4.60;;
14474;SDS011;7323;50.848;4.334;2023-01-05T14:59:55;9.27;;;4.30;;
14474;SDS011;7323;50.848;4.334;2023-01-05T15:02:50;10.87;;;4.00;;
14474;SDS011;7323;50.848;4.334;2023-01-05T15:05:41;11.27;;;4.70;;
14474;SDS011;7323;50.848;4.334;2023-01-05T15:13:45;8.47;;;4.53;;
14474;SDS011;7323;50.848;4.334;2023-01-05T15:22:30;10.03;;;4.27;;
14474;SDS011;7323;50.848;4.334;2023-01-05T15:28:27;9.20;;;4.40;;
14474;SDS011;7323;50.848;4.334;2023-01-05T15:31:32;10.63;;;4.90;;
14474;SDS011;7323;50.848;4.334;2023-01-05T15:34:03;10.97;;;5.10;;
14474;SDS011;7323;50.848;4.334;2023-01-05T15:39:30;6.77;;;4.60;;
14474;SDS011;7323;50.848;4.334;2023-01-05T15:42:19;9.03;;;4.93;;
14474;SDS011;7323;50.848;4.334;2023-01-05T15:44:48;7.63;;;4.60;;
14474;SDS011;7323;50.848;4.334;2023-01-05T15:47:17;6.20;;;4.50;;
14474;SDS011;7323;50.848;4.334;2023-01-05T15:52:35;7.63;;;4.57;;
14474;SDS011;7323;50.848;4.334;2023-01-05T15:55:16;7.23;;;5.57;;
14474;SDS011;7323;50.848;4.334;2023-01-05T16:00:41;7.17;;;5.33;;
14474;SDS011;7323;50.848;4.334;2023-01-05T16:03:20;7.33;;;5.93;;
14474;SDS011;7323;50.848;4.334;2023-01-05T16:05:56;6.10;;;5.50;;
14474;SDS011;7323;50.848;4.334;2023-01-05T16:08:40;7.30;;;5.23;;
14474;SDS011;7323;50.848;4.334;2023-01-05T16:11:14;7.03;;;5.80;;
14474;SDS011;7323;50.848;4.334;2023-01-05T16:19:49;5.80;;;5.00;;
14474;SDS011;7323;50.848;4.334;2023-01-05T16:22:29;7.33;;;5.20;;
14474;SDS011;7323;50.848;4.334;2023-01-05T16:25:02;6.93;;;5.60;;
14474;SDS011;7323;50.848;4.334;2023-01-05T16:27:36;6.83;;;5.53;;
14474;SDS011;7323;50.848;4.334;2023-01-05T16:32:56;7.37;;;5.77;;
14474;SDS011;7323;50.848;4.334;2023-01-05T16:38:12;6.43;;;5.57;;
14474;SDS011;7323;50.848;4.334;2023-01-05T16:51:50;7.33;;;6.60;;
14474;SDS011;7323;50.848;4.334;2023-01-05T16:57:00;7.37;;;6.43;;
14474;SDS011;7323;50.848;4.334;2023-01-05T17:00:15;7.67;;;6.87;;
14474;SDS011;7323;50.848;4.334;2023-01-05T17:04:55;7.63;;;6.40;;
14474;SDS011;7323;50.848;4.334;2023-01-05T17:07:21;8.00;;;6.23;;
14474;SDS011;7323;50.848;4.334;2023-01-05T17:09:47;6.70;;;5.80;;
14474;SDS011;7323;50.848;4.334;2023-01-05T17:12:13;6.20;;;4.97;;
14474;SDS011;7323;50.848;4.334;2023-01-05T17:14:39;7.20;;;5.83;;
14474;SDS011;7323;50.848;4.334;2023-01-05T17:17:13;6.27;;;5.53;;
14474;SDS011;7323;50.848;4.334;2023-01-05T17:19:42;7.63;;;6.30;;
14474;SDS011;7323;50.848;4.334;2023-01-05T17:22:09;6.87;;;5.33;;
14474;SDS011;7323;50.848;4.334;2023-01-05T17:24:35;7.33;;;5.77;;
14474;SDS011;7323;50.848;4.334;2023-01-05T17:27:00;7.57;;;6.07;;
14474;SDS011;7323;50.848;4.334;2023-01-05T17:29:30;6.80;;;5.73;;
14474;SDS011;7323;50.848;4.334;2023-01-05T17:31:57;5.93;;;5.27;;
14474;SDS011;7323;50.848;4.334;2023-01-05T17:34:23;8.13;;;5.73;;
14474;SDS011;7323;50.848;4.334;2023-01-05T17:36:51;7.63;;;6.17;;
14474;SDS011;7323;50.848;4.334;2023-01-05T17:39:19;9.10;;;6.93;;
14474;SDS011;7323;50.848;4.334;2023-01-05T17:41:46;9.30;;;7.63;;
14474;SDS011;7323;50.848;4.334;2023-01-05T17:44:11;10.77;;;8.73;;
14474;SDS011;7323;50.848;4.334;2023-01-05T17:46:38;9.57;;;8.00;;
14474;SDS011;7323;50.848;4.334;2023-01-05T17:49:06;9.47;;;8.40;;
14474;SDS011;7323;50.848;4.334;2023-01-05T17:51:37;9.80;;;7.83;;
14474;SDS011;7323;50.848;4.334;2023-01-05T17:54:02;10.23;;;9.23;;
14474;SDS011;7323;50.848;4.334;2023-01-05T17:56:28;9.50;;;8.37;;
14474;SDS011;7323;50.848;4.334;2023-01-05T17:58:55;9.53;;;8.50;;
14474;SDS011;7323;50.848;4.334;2023-01-05T18:01:20;9.93;;;8.80;;
14474;SDS011;7323;50.848;4.334;2023-01-05T18:06:42;8.93;;;7.50;;
14474;SDS011;7323;50.848;4.334;2023-01-05T18:09:08;9.33;;;7.47;;
14474;SDS011;7323;50.848;4.334;2023-01-05T18:11:34;7.23;;;6.30;;
14474;SDS011;7323;50.848;4.334;2023-01-05T18:14:00;6.77;;;6.07;;
14474;SDS011;7323;50.848;4.334;2023-01-05T18:16:25;7.13;;;5.80;;
14474;SDS011;7323;50.848;4.334;2023-01-05T18:18:52;7.53;;;5.60;;
14474;SDS011;7323;50.848;4.334;2023-01-05T18:21:18;6.63;;;5.37;;
14474;SDS011;7323;50.848;4.334;2023-01-05T18:23:44;5.70;;;4.70;;
14474;SDS011;7323;50.848;4.334;2023-01-05T18:26:13;5.70;;;5.07;;
14474;SDS011;7323;50.848;4.334;2023-01-05T18:28:45;5.90;;;4.73;;
14474;SDS011;7323;50.848;4.334;2023-01-05T18:31:22;7.70;;;5.07;;
14474;SDS011;7323;50.848;4.334;2023-01-05T18:33:49;5.77;;;4.30;;
14474;SDS011;7323;50.848;4.334;2023-01-05T18:36:17;5.37;;;4.77;;
14474;SDS011;7323;50.848;4.334;2023-01-05T18:38:44;6.40;;;4.10;;